createdAt,value
2022-12-01T00:02:55.726Z,11.15
2022-12-01T00:06:15.778Z,11.63
2022-12-01T00:09:36.342Z,11.15
2022-12-01T00:12:43.474Z,11.52
2022-12-01T00:15:45.782Z,12.37
2022-12-01T00:18:53.057Z,12.00
2022-12-01T00:21:55.198Z,11.93
2022-12-01T00:24:57.521Z,12.00
2022-12-01T00:27:59.675Z,10.95
2022-12-01T00:31:08.334Z,10.98
2022-12-01T00:34:25.436Z,11.27
2022-12-01T00:37:29.755Z,10.88
2022-12-01T00:40:31.931Z,11.93
2022-12-01T00:43:34.580Z,11.38
2022-12-01T00:46:36.707Z,11.75
2022-12-01T00:49:39.239Z,12.45
2022-12-01T00:52:41.386Z,12.25
2022-12-01T00:55:43.749Z,12.25
2022-12-01T00:58:45.871Z,12.77
2022-12-01T01:01:49.580Z,12.60
2022-12-01T01:04:53.099Z,12.30
2022-12-01T01:07:55.539Z,11.98
2022-12-01T01:11:00.534Z,12.50
2022-12-01T01:14:03.314Z,12.18
2022-12-01T01:17:05.657Z,12.75
2022-12-01T01:20:08.917Z,12.40
2022-12-01T01:23:11.018Z,12.88
2022-12-01T01:26:17.127Z,12.30
2022-12-01T01:29:19.644Z,12.70
2022-12-01T01:32:22.032Z,12.18
2022-12-01T01:35:24.185Z,12.63
2022-12-01T01:38:27.790Z,12.23
2022-12-01T01:41:30.226Z,12.37
2022-12-01T01:45:12.288Z,12.55
2022-12-01T01:48:15.347Z,12.35
2022-12-01T01:51:22.437Z,12.30
2022-12-01T01:54:29.289Z,12.55
2022-12-01T01:57:33.985Z,12.27
2022-12-01T02:00:37.865Z,13.00
2022-12-01T02:03:42.197Z,11.52
2022-12-01T02:06:44.328Z,12.50
2022-12-01T02:09:47.015Z,12.05
2022-12-01T02:13:16.293Z,12.07
2022-12-01T02:16:27.803Z,13.23
2022-12-01T02:19:56.018Z,12.65
2022-12-01T02:23:31.256Z,13.52
2022-12-01T02:26:49.154Z,12.95
2022-12-01T02:30:03.632Z,12.65
2022-12-01T02:33:23.681Z,12.98
2022-12-01T02:36:43.371Z,14.33
2022-12-01T02:39:58.022Z,13.65
2022-12-01T02:43:07.773Z,12.98
2022-12-01T02:46:20.659Z,13.40
2022-12-01T02:49:28.301Z,13.27
2022-12-01T02:52:30.938Z,13.20
2022-12-01T02:55:33.266Z,13.27
2022-12-01T02:58:35.502Z,13.60
2022-12-01T03:01:56.619Z,12.88
2022-12-01T03:05:32.208Z,12.27
2022-12-01T03:08:39.257Z,13.62
2022-12-01T03:12:03.280Z,13.13
2022-12-01T03:15:13.727Z,12.93
2022-12-01T03:18:30.779Z,12.10
2022-12-01T03:21:41.437Z,12.73
2022-12-01T03:24:48.084Z,12.57
2022-12-01T03:28:20.318Z,12.93
2022-12-01T03:31:24.393Z,12.80
2022-12-01T03:34:41.911Z,12.85
2022-12-01T03:37:56.964Z,13.32
2022-12-01T03:41:06.047Z,13.13
2022-12-01T03:44:14.011Z,12.95
2022-12-01T03:47:20.776Z,12.90
2022-12-01T03:50:29.172Z,13.57
2022-12-01T03:53:47.066Z,13.18
2022-12-01T03:56:56.712Z,12.60
2022-12-01T03:59:59.636Z,13.27
2022-12-01T04:03:05.941Z,13.20
2022-12-01T04:06:08.550Z,14.18
2022-12-01T04:09:10.651Z,13.13
2022-12-01T04:12:29.467Z,13.20
2022-12-01T04:15:31.681Z,12.50
2022-12-01T04:18:34.023Z,11.80
2022-12-01T04:21:36.188Z,12.25
2022-12-01T04:24:39.017Z,12.05
2022-12-01T04:27:41.178Z,12.15
2022-12-01T04:30:43.520Z,12.18
2022-12-01T04:33:45.674Z,11.02
2022-12-01T04:36:48.108Z,12.15
2022-12-01T04:39:50.327Z,12.02
2022-12-01T04:42:52.830Z,12.35
2022-12-01T04:45:54.885Z,11.73
2022-12-01T04:48:57.243Z,11.80
2022-12-01T04:51:59.375Z,11.73
2022-12-01T04:55:01.939Z,11.25
2022-12-01T04:58:04.953Z,12.55
2022-12-01T05:01:12.242Z,11.27
2022-12-01T05:04:15.396Z,12.25
2022-12-01T05:07:18.293Z,11.98
2022-12-01T05:10:20.699Z,12.13
2022-12-01T05:13:23.682Z,12.45
2022-12-01T05:16:34.307Z,12.43
2022-12-01T05:19:55.520Z,12.48
2022-12-01T05:23:05.824Z,12.45
2022-12-01T05:29:12.462Z,13.07
2022-12-01T05:32:14.838Z,13.43
2022-12-01T05:35:17.045Z,13.25
2022-12-01T05:38:20.015Z,12.65
2022-12-01T05:41:22.301Z,13.18
2022-12-01T05:44:24.729Z,13.27
2022-12-01T05:47:26.898Z,12.82
2022-12-01T05:50:30.301Z,12.82
2022-12-01T05:53:32.506Z,13.93
2022-12-01T05:56:35.102Z,13.73
2022-12-01T05:59:37.258Z,14.75
2022-12-01T06:02:42.376Z,14.43
2022-12-01T06:05:44.731Z,15.32
2022-12-01T06:08:47.001Z,14.57
2022-12-01T06:11:52.489Z,14.40
2022-12-01T06:14:54.853Z,14.65
2022-12-01T06:18:00.404Z,16.08
2022-12-01T06:21:03.350Z,15.55
2022-12-01T06:24:06.109Z,16.33
2022-12-01T06:27:08.254Z,16.30
2022-12-01T06:30:11.184Z,15.98
2022-12-01T06:33:13.367Z,16.48
2022-12-01T06:36:16.019Z,16.02
2022-12-01T06:39:18.200Z,17.37
2022-12-01T06:42:20.640Z,18.02
2022-12-01T06:45:22.705Z,17.33
2022-12-01T06:48:25.088Z,17.65
2022-12-01T06:51:27.397Z,17.85
2022-12-01T06:54:30.409Z,17.90
2022-12-01T06:57:33.229Z,20.50
2022-12-01T07:00:35.937Z,17.75
2022-12-01T07:03:39.078Z,18.42
2022-12-01T07:06:41.503Z,20.85
2022-12-01T07:09:43.894Z,21.65
2022-12-01T07:12:46.388Z,20.50
2022-12-01T07:15:51.388Z,19.83
2022-12-01T07:18:53.939Z,19.73
2022-12-01T07:21:56.250Z,19.33
2022-12-01T07:24:58.837Z,19.33
2022-12-01T07:28:01.409Z,19.00
2022-12-01T07:31:05.997Z,19.62
2022-12-01T07:34:12.911Z,18.52
2022-12-01T07:37:17.375Z,18.95
2022-12-01T07:40:19.928Z,18.85
2022-12-01T07:43:22.501Z,19.37
2022-12-01T07:46:26.503Z,19.62
2022-12-01T07:49:29.131Z,20.48
2022-12-01T07:52:31.322Z,21.00
2022-12-01T07:55:33.822Z,21.00
2022-12-01T07:58:36.168Z,20.83
2022-12-01T08:01:44.083Z,21.10
2022-12-01T08:04:47.189Z,21.95
2022-12-01T08:07:49.466Z,20.85
2022-12-01T08:10:52.954Z,22.08
2022-12-01T08:13:55.141Z,21.00
2022-12-01T08:16:57.491Z,23.05
2022-12-01T08:19:59.700Z,22.50
2022-12-01T08:23:02.767Z,23.87
2022-12-01T08:26:08.569Z,24.25
2022-12-01T08:29:13.608Z,23.90
2022-12-01T08:32:19.211Z,23.62
2022-12-01T08:35:21.973Z,23.48
2022-12-01T08:38:24.132Z,21.33
2022-12-01T08:41:26.724Z,22.87
2022-12-01T08:44:28.904Z,21.83
2022-12-01T08:47:31.294Z,21.85
2022-12-01T08:50:33.445Z,23.27
2022-12-01T08:53:45.169Z,22.52
2022-12-01T08:56:47.831Z,22.05
2022-12-01T08:59:50.608Z,21.77
2022-12-01T09:02:53.159Z,23.17
2022-12-01T09:06:01.730Z,21.95
2022-12-01T09:09:03.964Z,21.65
2022-12-01T09:12:07.466Z,22.27
2022-12-01T09:15:10.031Z,22.08
2022-12-01T09:18:12.429Z,22.58
2022-12-01T09:21:20.635Z,21.92
2022-12-01T09:24:23.841Z,22.73
2022-12-01T09:27:26.058Z,23.62
2022-12-01T09:30:28.944Z,19.73
2022-12-01T09:33:31.487Z,18.80
2022-12-01T09:36:35.677Z,19.40
2022-12-01T09:39:38.194Z,18.75
2022-12-01T09:42:41.217Z,15.48
2022-12-01T09:45:48.496Z,16.23
2022-12-01T09:48:54.049Z,13.40
2022-12-01T09:51:56.217Z,11.38
2022-12-01T09:55:00.321Z,11.55
2022-12-01T09:58:04.229Z,11.20
2022-12-01T10:01:15.694Z,11.32
2022-12-01T10:04:36.087Z,11.68
2022-12-01T10:07:47.706Z,12.27
2022-12-01T10:10:54.929Z,13.00
2022-12-01T10:13:58.701Z,12.35
2022-12-01T10:17:16.947Z,13.20
2022-12-01T10:20:44.619Z,13.43
2022-12-01T10:24:15.201Z,13.07
2022-12-01T10:27:49.505Z,13.37
2022-12-01T10:30:53.108Z,12.70
2022-12-01T10:34:06.262Z,12.93
2022-12-01T10:37:18.678Z,14.35
2022-12-01T10:40:21.126Z,13.10
2022-12-01T10:43:41.009Z,13.07
2022-12-01T10:46:54.611Z,13.07
2022-12-01T10:49:57.402Z,13.02
2022-12-01T10:52:59.864Z,12.77
2022-12-01T10:56:10.422Z,13.07
2022-12-01T10:59:26.070Z,12.40
2022-12-01T11:02:30.929Z,13.62
2022-12-01T11:05:39.192Z,13.07
2022-12-01T11:08:46.900Z,13.48
2022-12-01T11:11:56.795Z,14.20
2022-12-01T11:14:59.729Z,14.43
2022-12-01T11:18:05.750Z,13.15
2022-12-01T11:21:26.507Z,13.52
2022-12-01T11:24:43.906Z,13.13
2022-12-01T11:28:01.436Z,13.80
2022-12-01T11:31:08.772Z,14.68
2022-12-01T11:34:38.402Z,13.77
2022-12-01T11:41:30.463Z,14.57
2022-12-01T11:44:51.075Z,14.45
2022-12-01T11:48:12.541Z,14.32
2022-12-01T11:51:17.792Z,15.15
2022-12-01T11:54:25.104Z,13.00
2022-12-01T11:57:34.864Z,13.60
2022-12-01T12:00:56.208Z,12.25
2022-12-01T12:04:16.036Z,13.00
2022-12-01T12:07:26.615Z,12.77
2022-12-01T12:10:32.036Z,13.10
2022-12-01T12:13:55.996Z,12.45
2022-12-01T12:17:29.567Z,12.65
2022-12-01T12:20:45.546Z,13.73
2022-12-01T12:24:17.017Z,13.60
2022-12-01T12:30:29.822Z,13.07
2022-12-01T12:33:58.862Z,13.00
2022-12-01T12:37:04.391Z,13.23
2022-12-01T12:40:17.782Z,13.15
2022-12-01T12:43:25.409Z,13.07
2022-12-01T12:46:40.206Z,13.40
2022-12-01T12:50:19.972Z,13.07
2022-12-01T12:53:27.774Z,13.55
2022-12-01T12:56:34.076Z,13.82
2022-12-01T12:59:48.701Z,13.62
2022-12-01T13:03:02.126Z,13.35
2022-12-01T13:06:12.813Z,13.02
2022-12-01T13:09:27.075Z,13.65
2022-12-01T13:12:33.453Z,13.13
2022-12-01T13:15:37.923Z,13.38
2022-12-01T13:18:49.178Z,13.20
2022-12-01T13:21:53.019Z,13.15
2022-12-01T13:24:55.281Z,13.13
2022-12-01T13:28:00.568Z,12.63
2022-12-01T13:31:06.330Z,12.77
2022-12-01T13:34:20.829Z,12.93
2022-12-01T13:37:33.138Z,12.52
2022-12-01T13:40:35.895Z,13.15
2022-12-01T13:43:52.074Z,12.25
2022-12-01T13:47:23.567Z,12.77
2022-12-01T13:54:25.581Z,13.55
2022-12-01T13:57:30.128Z,11.88
2022-12-01T14:00:34.833Z,12.18
2022-12-01T14:03:40.117Z,12.80
2022-12-01T14:06:50.603Z,12.07
2022-12-01T14:09:57.353Z,11.73
2022-12-01T14:13:04.227Z,11.25
2022-12-01T14:16:08.406Z,12.07
2022-12-01T14:19:36.893Z,11.43
2022-12-01T14:22:43.951Z,11.05
2022-12-01T14:26:12.559Z,10.63
2022-12-01T14:29:38.729Z,9.52
2022-12-01T14:32:40.824Z,9.02
2022-12-01T14:35:43.339Z,8.85
2022-12-01T14:38:47.541Z,8.93
2022-12-01T14:41:56.597Z,8.90
2022-12-01T14:44:58.925Z,9.82
2022-12-01T14:48:04.254Z,8.45
2022-12-01T14:51:32.971Z,8.80
2022-12-01T14:54:49.434Z,8.65
2022-12-01T14:58:00.095Z,9.05
2022-12-01T15:01:12.746Z,9.90
2022-12-01T15:04:15.475Z,8.70
2022-12-01T15:07:22.912Z,8.70
2022-12-01T15:10:35.061Z,9.23
2022-12-01T15:13:52.908Z,9.27
2022-12-01T15:16:55.448Z,9.07
2022-12-01T15:19:58.875Z,9.10
2022-12-01T15:23:02.679Z,9.25
2022-12-01T15:26:05.342Z,9.60
2022-12-01T15:29:46.878Z,9.05
2022-12-01T15:32:50.057Z,9.05
2022-12-01T15:35:53.228Z,9.90
2022-12-01T15:38:56.115Z,9.45
2022-12-01T15:41:58.787Z,10.20
2022-12-01T15:45:17.637Z,9.82
2022-12-01T15:48:28.994Z,9.52
2022-12-01T15:51:32.064Z,9.95
2022-12-01T15:54:34.729Z,10.38
2022-12-01T15:57:38.477Z,10.20
2022-12-01T16:00:40.737Z,10.98
2022-12-01T16:03:50.806Z,11.20
2022-12-01T16:07:06.999Z,11.12
2022-12-01T16:10:32.477Z,23.15
2022-12-01T16:13:48.111Z,15.88
2022-12-01T16:16:51.473Z,12.30
2022-12-01T16:20:15.874Z,12.35
2022-12-01T16:23:25.367Z,12.30
2022-12-01T16:26:28.539Z,12.20
2022-12-01T16:29:43.933Z,12.27
2022-12-01T16:32:49.291Z,11.70
2022-12-01T16:35:52.994Z,11.68
2022-12-01T16:38:55.176Z,11.18
2022-12-01T16:42:00.271Z,12.10
2022-12-01T16:45:04.847Z,12.32
2022-12-01T16:48:09.554Z,12.07
2022-12-01T16:51:14.598Z,11.05
2022-12-01T16:54:17.181Z,11.07
2022-12-01T16:57:19.439Z,11.45
2022-12-01T17:00:23.147Z,11.82
2022-12-01T17:03:27.999Z,11.90
2022-12-01T17:06:32.178Z,12.95
2022-12-01T17:09:34.327Z,11.45
2022-12-01T17:12:36.927Z,12.00
2022-12-01T17:15:44.294Z,11.63
2022-12-01T17:18:46.783Z,12.60
2022-12-01T17:21:48.938Z,13.70
2022-12-01T17:24:51.604Z,14.27
2022-12-01T17:27:54.118Z,14.32
2022-12-01T17:31:00.480Z,14.15
2022-12-01T17:34:02.717Z,12.45
2022-12-01T17:37:05.415Z,12.88
2022-12-01T17:40:11.188Z,13.95
2022-12-01T17:43:13.647Z,13.15
2022-12-01T17:46:16.450Z,13.60
2022-12-01T17:49:19.242Z,13.68
2022-12-01T17:52:24.195Z,14.07
2022-12-01T17:55:30.497Z,13.98
2022-12-01T17:58:33.678Z,15.52
2022-12-01T18:01:36.465Z,14.45
2022-12-01T18:04:39.351Z,15.02
2022-12-01T18:07:41.821Z,15.13
2022-12-01T18:10:44.358Z,14.73
2022-12-01T18:13:49.487Z,14.65
2022-12-01T18:16:52.854Z,15.82
2022-12-01T18:19:56.217Z,15.40
2022-12-01T18:22:58.857Z,16.42
2022-12-01T18:26:08.664Z,16.90
2022-12-01T18:29:18.500Z,16.62
2022-12-01T18:32:21.049Z,18.42
2022-12-01T18:35:30.329Z,18.45
2022-12-01T18:38:34.245Z,19.05
2022-12-01T18:41:37.117Z,19.62
2022-12-01T18:44:39.360Z,19.35
2022-12-01T18:47:44.695Z,21.33
2022-12-01T18:50:49.396Z,21.20
2022-12-01T18:53:57.889Z,23.85
2022-12-01T18:57:00.246Z,25.12
2022-12-01T19:00:06.176Z,24.83
2022-12-01T19:03:08.332Z,25.90
2022-12-01T19:06:12.553Z,24.98
2022-12-01T19:09:16.151Z,26.42
2022-12-01T19:12:18.957Z,25.33
2022-12-01T19:15:21.379Z,27.27
2022-12-01T19:18:25.910Z,26.62
2022-12-01T19:21:28.233Z,24.80
2022-12-01T19:24:31.678Z,23.55
2022-12-01T19:27:34.720Z,23.33
2022-12-01T19:30:41.003Z,23.52
2022-12-01T19:33:46.573Z,23.30
2022-12-01T19:36:52.178Z,22.55
2022-12-01T19:39:56.753Z,22.33
2022-12-01T19:42:59.457Z,22.83
2022-12-01T19:46:10.016Z,23.05
2022-12-01T19:49:13.252Z,22.62
2022-12-01T19:52:16.919Z,24.23
2022-12-01T19:55:20.745Z,23.80
2022-12-01T19:58:24.881Z,24.35
2022-12-01T20:01:27.861Z,24.65
2022-12-01T20:04:30.948Z,25.25
2022-12-01T20:07:33.113Z,26.58
2022-12-01T20:10:35.737Z,28.70
2022-12-01T20:13:40.284Z,30.80
2022-12-01T20:16:43.794Z,34.30
2022-12-01T20:19:46.372Z,34.33
2022-12-01T20:22:48.868Z,33.38
2022-12-01T20:25:52.312Z,32.78
2022-12-01T20:28:59.025Z,33.25
2022-12-01T20:32:03.033Z,32.97
2022-12-01T20:35:08.946Z,32.28
2022-12-01T20:38:11.181Z,32.83
2022-12-01T20:41:14.614Z,32.58
2022-12-01T20:44:17.919Z,32.22
2022-12-01T20:47:21.170Z,31.70
2022-12-01T20:50:23.801Z,31.08
2022-12-01T20:53:26.229Z,31.23
2022-12-01T20:56:28.568Z,31.12
2022-12-01T20:59:31.092Z,31.45
2022-12-01T21:02:33.259Z,31.62
2022-12-01T21:05:39.098Z,32.10
2022-12-01T21:08:44.061Z,30.98
2022-12-01T21:12:08.684Z,30.77
2022-12-01T21:15:28.007Z,29.40
2022-12-01T21:18:55.761Z,31.02
2022-12-01T21:21:58.745Z,31.65
2022-12-01T21:25:15.700Z,33.80
2022-12-01T21:28:24.789Z,32.58
2022-12-01T21:31:27.487Z,33.30
2022-12-01T21:34:29.881Z,33.78
2022-12-01T21:37:32.409Z,35.03
2022-12-01T21:40:34.522Z,35.05
2022-12-01T21:43:38.588Z,34.50
2022-12-01T21:46:42.379Z,34.40
2022-12-01T21:49:45.859Z,34.72
2022-12-01T21:52:48.553Z,34.35
2022-12-01T21:55:50.981Z,34.40
2022-12-01T21:58:55.298Z,33.17
2022-12-01T22:01:57.869Z,33.00
2022-12-01T22:05:00.419Z,32.65
2022-12-01T22:08:22.774Z,32.70
2022-12-01T22:11:28.980Z,31.15
2022-12-01T22:14:36.062Z,32.33
2022-12-01T22:17:40.970Z,32.40
2022-12-01T22:20:43.549Z,31.73
2022-12-01T22:23:48.805Z,32.67
2022-12-01T22:26:58.951Z,31.55
2022-12-01T22:30:10.438Z,31.33
2022-12-01T22:36:32.866Z,30.90
2022-12-01T22:39:35.363Z,30.37
2022-12-01T22:42:37.921Z,31.25
2022-12-01T22:45:42.293Z,31.37
2022-12-01T22:48:53.220Z,28.83
2022-12-01T22:52:18.846Z,29.25
2022-12-01T22:55:21.441Z,30.65
2022-12-01T22:58:40.764Z,29.27
2022-12-01T23:01:57.653Z,30.08
2022-12-01T23:05:14.276Z,30.25
2022-12-01T23:08:22.458Z,29.30
2022-12-01T23:11:25.614Z,30.95
2022-12-01T23:14:28.811Z,31.08
2022-12-01T23:17:34.317Z,31.15
2022-12-01T23:20:38.217Z,29.35
2022-12-01T23:23:40.362Z,31.40
2022-12-01T23:26:46.174Z,31.80
2022-12-01T23:29:48.630Z,31.73
2022-12-01T23:32:59.580Z,31.62
2022-12-01T23:36:22.597Z,32.05
2022-12-01T23:39:32.609Z,30.58
2022-12-01T23:42:34.755Z,30.90
2022-12-01T23:45:37.712Z,30.45
2022-12-01T23:48:46.206Z,30.25
2022-12-01T23:51:59.228Z,30.35
2022-12-01T23:55:02.499Z,30.80
2022-12-01T23:58:05.301Z,30.05
